Time;durP1;ratioP1;P1;durP2;ratioP2;P2;SDS_P1;SDS_P2;PMS_P1;PMS_P2;Temp;Humidity;BMP_temperature;BMP_pressure;BME280_temperature;BME280_humidity;BME280_pressure;Samples;Min_cycle;Max_cycle;Signal;HPM_P1;HPM_P2
2023/04/08 00:01:21;;;;;;;6.57;3.50;;;;;;;;;;5078422;28;20068;-60
2023/04/08 00:03:47;;;;;;;5.93;3.80;;;;;;;;;;5079393;28;20047;-60
2023/04/08 00:06:13;;;;;;;9.07;4.70;;;;;;;;;;5080226;28;20036;-60
2023/04/08 00:08:42;;;;;;;6.25;3.60;;;;;;;;;;5081281;28;20056;-60
2023/04/08 00:11:08;;;;;;;9.38;4.63;;;;;;;;;;5082261;28;20040;-60
2023/04/08 00:13:34;;;;;;;6.30;3.75;;;;;;;;;;5083685;28;20638;-60
2023/04/08 00:16:00;;;;;;;5.72;3.80;;;;;;;;;;5074150;28;20068;-60
2023/04/08 00:18:26;;;;;;;5.82;4.18;;;;;;;;;;5083536;28;20527;-60
2023/04/08 00:20:52;;;;;;;11.20;6.15;;;;;;;;;;5079688;28;20040;-60
2023/04/08 00:23:20;;;;;;;13.23;5.75;;;;;;;;;;5080940;28;20033;-60
2023/04/08 00:25:46;;;;;;;12.88;6.82;;;;;;;;;;5079775;28;20046;-60
2023/04/08 00:28:12;;;;;;;6.78;4.75;;;;;;;;;;5083574;28;20067;-60
2023/04/08 00:30:38;;;;;;;6.18;4.80;;;;;;;;;;5077657;28;20044;-60
2023/04/08 00:33:04;;;;;;;7.25;4.63;;;;;;;;;;5080114;28;20051;-60
2023/04/08 00:35:30;;;;;;;9.25;4.35;;;;;;;;;;5081675;28;20113;-60
2023/04/08 00:37:56;;;;;;;7.50;5.05;;;;;;;;;;5081156;28;20098;-60
2023/04/08 00:40:22;;;;;;;15.23;5.45;;;;;;;;;;5078916;28;20040;-60
2023/04/08 00:42:48;;;;;;;7.80;4.43;;;;;;;;;;5083314;28;20064;-60
2023/04/08 00:45:14;;;;;;;8.38;4.53;;;;;;;;;;5077896;28;20162;-60
2023/04/08 00:47:41;;;;;;;15.30;5.43;;;;;;;;;;5083105;28;20056;-59
2023/04/08 00:50:09;;;;;;;9.23;5.47;;;;;;;;;;5080124;28;20172;-59
2023/04/08 00:52:35;;;;;;;9.90;4.55;;;;;;;;;;5081272;28;20045;-59
2023/04/08 00:55:01;;;;;;;6.07;4.10;;;;;;;;;;5081772;28;20044;-59
2023/04/08 00:57:27;;;;;;;8.15;5.18;;;;;;;;;;5079426;28;20051;-59
2023/04/08 00:59:53;;;;;;;8.35;5.55;;;;;;;;;;5079056;28;20072;-59
2023/04/08 01:02:23;;;;;;;7.63;4.38;;;;;;;;;;5078945;28;20103;-59
2023/04/08 01:04:58;;;;;;;8.52;5.60;;;;;;;;;;5080784;28;20044;-59
2023/04/08 01:07:27;;;;;;;12.70;5.10;;;;;;;;;;5079496;28;21207;-59
2023/04/08 01:09:58;;;;;;;11.82;5.90;;;;;;;;;;5082309;28;20060;-59
2023/04/08 01:12:28;;;;;;;9.63;5.60;;;;;;;;;;5082509;28;20097;-59
2023/04/08 01:15:04;;;;;;;9.82;6.72;;;;;;;;;;5082311;28;20040;-60
2023/04/08 01:17:31;;;;;;;6.75;5.07;;;;;;;;;;5078603;28;20033;-59
2023/04/08 01:19:58;;;;;;;10.90;5.82;;;;;;;;;;5078726;28;20103;-59
2023/04/08 01:22:43;;;;;;;9.73;5.28;;;;;;;;;;5083032;28;20033;-60
2023/04/08 01:25:16;;;;;;;9.98;6.28;;;;;;;;;;5078690;28;20582;-60
2023/04/08 01:27:42;;;;;;;10.23;6.05;;;;;;;;;;5080180;28;20033;-59
2023/04/08 01:30:09;;;;;;;13.93;6.78;;;;;;;;;;5080799;28;20086;-59
2023/04/08 01:32:36;;;;;;;10.85;6.20;;;;;;;;;;5079705;28;20068;-59
2023/04/08 01:35:02;;;;;;;10.85;6.10;;;;;;;;;;5079809;28;20182;-59
2023/04/08 01:37:30;;;;;;;12.32;7.10;;;;;;;;;;5081984;28;20040;-59
2023/04/08 01:39:56;;;;;;;10.02;7.13;;;;;;;;;;5083208;28;20650;-59
2023/04/08 01:42:23;;;;;;;11.57;7.00;;;;;;;;;;5084710;28;20073;-59
2023/04/08 01:44:51;;;;;;;13.02;6.10;;;;;;;;;;5080498;28;20040;-59
2023/04/08 01:47:17;;;;;;;9.57;5.97;;;;;;;;;;5078081;28;20044;-59
2023/04/08 01:49:43;;;;;;;10.85;6.40;;;;;;;;;;5078946;28;20044;-59
2023/04/08 01:52:10;;;;;;;10.15;6.88;;;;;;;;;;5081387;28;20051;-60
2023/04/08 01:54:36;;;;;;;13.63;6.25;;;;;;;;;;5092032;27;20147;-59
2023/04/08 01:57:07;;;;;;;9.45;5.57;;;;;;;;;;5080480;28;20117;-59
2023/04/08 01:59:35;;;;;;;8.55;5.88;;;;;;;;;;5076534;28;20052;-59
2023/04/08 02:02:01;;;;;;;11.10;6.55;;;;;;;;;;5077298;27;20048;-59
2023/04/08 02:04:27;;;;;;;11.32;5.40;;;;;;;;;;5075525;28;20047;-59
2023/04/08 02:06:55;;;;;;;11.23;6.43;;;;;;;;;;5081157;28;20094;-59
2023/04/08 02:09:21;;;;;;;8.82;5.07;;;;;;;;;;5081195;28;20060;-59
2023/04/08 02:11:47;;;;;;;9.55;5.70;;;;;;;;;;5080308;28;20047;-59
2023/04/08 02:14:13;;;;;;;9.00;6.20;;;;;;;;;;5063723;28;20040;-59
2023/04/08 02:16:42;;;;;;;8.15;5.15;;;;;;;;;;5080790;28;20040;-59
2023/04/08 02:19:11;;;;;;;7.28;5.40;;;;;;;;;;5079383;28;20780;-60
2023/04/08 02:21:42;;;;;;;8.80;5.50;;;;;;;;;;5082173;28;20044;-59
2023/04/08 02:24:10;;;;;;;9.32;4.40;;;;;;;;;;5079796;28;20044;-59
2023/04/08 02:26:36;;;;;;;10.23;5.70;;;;;;;;;;5079795;28;20541;-61
2023/04/08 02:29:04;;;;;;;8.02;5.07;;;;;;;;;;5078040;28;20098;-60
2023/04/08 02:31:30;;;;;;;8.45;5.25;;;;;;;;;;5077436;27;20033;-59
2023/04/08 02:33:57;;;;;;;8.30;5.35;;;;;;;;;;5078822;28;20040;-59
2023/04/08 02:36:23;;;;;;;10.55;6.90;;;;;;;;;;5076582;28;20051;-59
2023/04/08 02:38:49;;;;;;;13.82;6.45;;;;;;;;;;5080008;28;20055;-59
2023/04/08 02:41:15;;;;;;;19.38;5.65;;;;;;;;;;5078687;28;20086;-59
2023/04/08 02:43:42;;;;;;;8.73;5.90;;;;;;;;;;5082893;28;20874;-59
2023/04/08 02:46:09;;;;;;;9.15;6.13;;;;;;;;;;5084260;28;20032;-59
2023/04/08 02:48:35;;;;;;;9.48;6.72;;;;;;;;;;5085698;28;20586;-59
2023/04/08 02:51:01;;;;;;;10.07;6.10;;;;;;;;;;5078741;28;20036;-59
2023/04/08 02:53:27;;;;;;;8.68;5.13;;;;;;;;;;5081480;28;20051;-59
2023/04/08 02:55:53;;;;;;;9.85;5.25;;;;;;;;;;5080625;28;20044;-60
2023/04/08 02:58:20;;;;;;;9.95;6.18;;;;;;;;;;5082504;28;20444;-60
2023/04/08 03:00:46;;;;;;;8.48;5.20;;;;;;;;;;5081095;28;20505;-59
2023/04/08 03:03:12;;;;;;;9.85;5.28;;;;;;;;;;5083576;28;20032;-59
2023/04/08 03:05:38;;;;;;;7.63;4.55;;;;;;;;;;5081953;28;20128;-59
2023/04/08 03:08:05;;;;;;;10.65;6.00;;;;;;;;;;5082966;28;20044;-59
2023/04/08 03:10:31;;;;;;;8.52;5.47;;;;;;;;;;5082568;28;20047;-59
2023/04/08 03:12:57;;;;;;;8.20;4.72;;;;;;;;;;5084363;28;20819;-59
2023/04/08 03:15:23;;;;;;;8.25;4.60;;;;;;;;;;5077447;28;20044;-59
2023/04/08 03:17:50;;;;;;;5.63;4.15;;;;;;;;;;5081894;28;20505;-59
2023/04/08 03:20:16;;;;;;;7.38;4.75;;;;;;;;;;5085608;28;20044;-59
2023/04/08 03:22:42;;;;;;;14.88;5.72;;;;;;;;;;5082625;28;20041;-60
2023/04/08 03:25:08;;;;;;;7.50;5.10;;;;;;;;;;5065798;28;20132;-59
2023/04/08 03:27:34;;;;;;;8.60;5.20;;;;;;;;;;5083904;28;20051;-59
2023/04/08 03:30:00;;;;;;;8.43;4.53;;;;;;;;;;5079558;28;20044;-59
2023/04/08 03:32:26;;;;;;;8.40;4.55;;;;;;;;;;5082571;28;20040;-60
2023/04/08 03:34:53;;;;;;;9.38;4.35;;;;;;;;;;5080790;28;20044;-60
2023/04/08 03:37:19;;;;;;;10.02;4.43;;;;;;;;;;5081912;28;20183;-60
2023/04/08 03:39:45;;;;;;;10.75;4.55;;;;;;;;;;5082589;28;20049;-60
2023/04/08 03:42:11;;;;;;;6.65;3.90;;;;;;;;;;5068385;28;20047;-60
2023/04/08 03:44:37;;;;;;;10.82;4.53;;;;;;;;;;5080708;28;20040;-60
2023/04/08 03:47:03;;;;;;;11.00;3.95;;;;;;;;;;5081352;28;20049;-60
2023/04/08 03:49:29;;;;;;;8.68;4.63;;;;;;;;;;5082243;28;20040;-60
2023/04/08 03:51:55;;;;;;;9.65;4.13;;;;;;;;;;5081048;28;20041;-60
2023/04/08 03:54:21;;;;;;;7.20;4.28;;;;;;;;;;5079399;28;20489;-61
2023/04/08 03:56:49;;;;;;;11.38;4.60;;;;;;;;;;5079516;28;20675;-60
2023/04/08 03:59:15;;;;;;;10.07;4.85;;;;;;;;;;5082015;28;20041;-61
2023/04/08 04:01:41;;;;;;;5.50;3.60;;;;;;;;;;5079054;28;20063;-60
2023/04/08 04:04:07;;;;;;;11.00;5.20;;;;;;;;;;5082251;28;20040;-60
2023/04/08 04:06:33;;;;;;;8.73;4.22;;;;;;;;;;5080455;28;20569;-60
2023/04/08 04:08:59;;;;;;;7.53;4.75;;;;;;;;;;5082069;28;20110;-61
2023/04/08 04:11:26;;;;;;;9.23;4.88;;;;;;;;;;5080784;28;20047;-60
2023/04/08 04:13:52;;;;;;;7.85;4.40;;;;;;;;;;5083434;28;20052;-60
2023/04/08 04:16:18;;;;;;;5.20;3.70;;;;;;;;;;5078969;28;20044;-61
2023/04/08 04:18:44;;;;;;;9.95;4.47;;;;;;;;;;5079958;28;20045;-61
2023/04/08 04:21:11;;;;;;;5.95;3.45;;;;;;;;;;5075444;27;20472;-61
2023/04/08 04:23:37;;;;;;;8.07;4.60;;;;;;;;;;5084082;27;20071;-61
2023/04/08 04:26:07;;;;;;;5.15;3.30;;;;;;;;;;5081889;28;20572;-61
2023/04/08 04:28:33;;;;;;;7.72;4.50;;;;;;;;;;5083520;28;20041;-61
2023/04/08 04:30:59;;;;;;;8.38;4.50;;;;;;;;;;5083038;28;20044;-60
2023/04/08 04:33:26;;;;;;;8.25;4.90;;;;;;;;;;5081203;28;20728;-61
2023/04/08 04:35:52;;;;;;;8.15;6.20;;;;;;;;;;5084028;28;20094;-61
2023/04/08 04:38:18;;;;;;;5.95;4.38;;;;;;;;;;5082640;28;20080;-60
2023/04/08 04:40:44;;;;;;;11.23;4.57;;;;;;;;;;5078480;28;20075;-61
2023/04/08 04:43:10;;;;;;;9.23;4.65;;;;;;;;;;5081042;28;20043;-60
2023/04/08 04:45:36;;;;;;;6.72;4.28;;;;;;;;;;5076568;28;20033;-60
2023/04/08 04:48:02;;;;;;;11.77;5.30;;;;;;;;;;5082081;28;20051;-61
2023/04/08 04:50:28;;;;;;;8.43;5.20;;;;;;;;;;5079119;28;20178;-61
2023/04/08 04:52:55;;;;;;;9.13;4.80;;;;;;;;;;5082038;28;20123;-60
2023/04/08 04:55:24;;;;;;;9.57;4.60;;;;;;;;;;5065599;28;20185;-60
2023/04/08 04:57:50;;;;;;;8.27;4.60;;;;;;;;;;5079439;28;20910;-60
2023/04/08 05:00:16;;;;;;;9.88;4.78;;;;;;;;;;5081045;28;20130;-60
2023/04/08 05:02:42;;;;;;;8.25;4.35;;;;;;;;;;5081196;28;20040;-60
2023/04/08 05:05:08;;;;;;;8.68;5.25;;;;;;;;;;5078618;28;20094;-60
2023/04/08 05:07:37;;;;;;;11.77;5.47;;;;;;;;;;5082292;28;20039;-60
2023/04/08 05:10:04;;;;;;;6.95;3.78;;;;;;;;;;5083921;28;20048;-61
2023/04/08 05:12:30;;;;;;;8.35;5.53;;;;;;;;;;5079660;27;20042;-61
2023/04/08 05:15:00;;;;;;;8.45;4.03;;;;;;;;;;5080110;28;20050;-61
2023/04/08 05:17:27;;;;;;;13.20;4.97;;;;;;;;;;5078910;28;20137;-60
2023/04/08 05:19:53;;;;;;;10.10;4.95;;;;;;;;;;5080417;28;20051;-60
2023/04/08 05:22:19;;;;;;;10.32;3.90;;;;;;;;;;5066898;28;20083;-60
2023/04/08 05:24:45;;;;;;;7.63;4.75;;;;;;;;;;5081584;28;20059;-60
2023/04/08 05:27:11;;;;;;;12.13;6.93;;;;;;;;;;5065788;28;20052;-60
2023/04/08 05:29:37;;;;;;;11.38;4.93;;;;;;;;;;5082530;28;20503;-61
2023/04/08 05:32:03;;;;;;;7.50;5.35;;;;;;;;;;5080927;28;20040;-60
2023/04/08 05:34:31;;;;;;;7.45;4.25;;;;;;;;;;5080453;28;20047;-60
2023/04/08 05:36:57;;;;;;;8.20;5.15;;;;;;;;;;5081409;28;20815;-61
2023/04/08 05:39:23;;;;;;;12.70;4.97;;;;;;;;;;5081990;28;20086;-61
2023/04/08 05:41:49;;;;;;;8.52;4.85;;;;;;;;;;5078798;28;20054;-61
2023/04/08 05:44:15;;;;;;;11.48;4.65;;;;;;;;;;5061868;28;20049;-61
2023/04/08 05:46:41;;;;;;;10.93;5.57;;;;;;;;;;5079344;28;20160;-60
2023/04/08 05:49:07;;;;;;;13.40;5.53;;;;;;;;;;5079854;28;20032;-61
2023/04/08 05:51:34;;;;;;;9.45;5.53;;;;;;;;;;5080973;28;20489;-60
2023/04/08 05:54:00;;;;;;;10.43;5.72;;;;;;;;;;5080924;28;20044;-61
2023/04/08 05:56:26;;;;;;;12.18;6.05;;;;;;;;;;5079736;28;20043;-60
2023/04/08 05:58:52;;;;;;;12.13;5.80;;;;;;;;;;5077141;28;20047;-61
2023/04/08 06:01:18;;;;;;;10.93;6.03;;;;;;;;;;5067528;28;20033;-61
2023/04/08 06:03:44;;;;;;;12.80;5.80;;;;;;;;;;5078995;28;20546;-60
2023/04/08 06:06:11;;;;;;;7.75;4.78;;;;;;;;;;5078855;27;20404;-60
2023/04/08 06:08:37;;;;;;;8.75;5.50;;;;;;;;;;5076705;28;20063;-60
2023/04/08 06:11:04;;;;;;;10.63;4.78;;;;;;;;;;5078264;28;20519;-60
2023/04/08 06:13:30;;;;;;;12.20;5.55;;;;;;;;;;5076686;28;20124;-60
2023/04/08 06:15:56;;;;;;;9.27;4.90;;;;;;;;;;5092639;27;20040;-60
2023/04/08 06:18:22;;;;;;;8.65;5.10;;;;;;;;;;5066645;28;20040;-59
2023/04/08 06:20:49;;;;;;;12.38;5.28;;;;;;;;;;5082426;28;20187;-60
2023/04/08 06:23:15;;;;;;;20.25;5.43;;;;;;;;;;5082746;27;20044;-60
2023/04/08 06:25:41;;;;;;;9.93;5.32;;;;;;;;;;5083650;28;20058;-60
2023/04/08 06:28:07;;;;;;;8.60;4.57;;;;;;;;;;5086134;28;20597;-60
2023/04/08 06:30:34;;;;;;;10.77;5.18;;;;;;;;;;5081375;28;20368;-60
2023/04/08 06:33:00;;;;;;;14.48;6.63;;;;;;;;;;5080599;28;20518;-60
2023/04/08 06:35:26;;;;;;;11.20;6.40;;;;;;;;;;5083678;28;20552;-60
2023/04/08 06:37:52;;;;;;;11.02;6.43;;;;;;;;;;5084158;27;20180;-61
2023/04/08 06:40:18;;;;;;;6.60;3.28;;;;;;;;;;5084596;28;20032;-60
2023/04/08 06:42:44;;;;;;;12.98;5.60;;;;;;;;;;5084897;28;20137;-60
2023/04/08 06:45:11;;;;;;;12.05;7.00;;;;;;;;;;5086805;27;20087;-60
2023/04/08 06:47:37;;;;;;;7.90;4.75;;;;;;;;;;5068906;28;20046;-60
2023/04/08 06:50:03;;;;;;;12.52;6.53;;;;;;;;;;5086448;28;20032;-60
2023/04/08 06:52:29;;;;;;;9.55;6.00;;;;;;;;;;5082982;28;20963;-60
2023/04/08 06:54:55;;;;;;;11.93;5.90;;;;;;;;;;5083274;28;20040;-59
2023/04/08 06:57:21;;;;;;;11.63;6.22;;;;;;;;;;5083892;28;20634;-60
2023/04/08 06:59:48;;;;;;;11.43;6.18;;;;;;;;;;5086355;28;20067;-59
2023/04/08 07:02:14;;;;;;;14.48;6.03;;;;;;;;;;5081930;28;20098;-59
2023/04/08 07:04:40;;;;;;;9.88;6.57;;;;;;;;;;5085193;28;20044;-59
2023/04/08 07:07:06;;;;;;;12.75;6.38;;;;;;;;;;5084302;28;20048;-60
2023/04/08 07:09:32;;;;;;;10.48;5.68;;;;;;;;;;5085803;28;20080;-60
2023/04/08 07:11:58;;;;;;;12.38;6.45;;;;;;;;;;5081254;28;20058;-60
2023/04/08 07:14:25;;;;;;;10.18;6.25;;;;;;;;;;5086939;28;20041;-59
2023/04/08 07:16:51;;;;;;;12.68;6.45;;;;;;;;;;5081193;28;20079;-59
2023/04/08 07:19:17;;;;;;;10.40;6.40;;;;;;;;;;5082542;28;20041;-60
2023/04/08 07:21:43;;;;;;;10.00;5.72;;;;;;;;;;5081289;28;20095;-60
2023/04/08 07:24:09;;;;;;;11.48;6.22;;;;;;;;;;5080410;28;20036;-60
2023/04/08 07:26:36;;;;;;;18.90;6.85;;;;;;;;;;5078995;28;20088;-59
2023/04/08 07:29:02;;;;;;;11.10;5.65;;;;;;;;;;5079632;28;20043;-60
2023/04/08 07:31:28;;;;;;;12.77;6.78;;;;;;;;;;5082675;28;20486;-59
2023/04/08 07:33:54;;;;;;;17.48;7.45;;;;;;;;;;5081315;28;20465;-60
2023/04/08 07:36:20;;;;;;;15.18;6.68;;;;;;;;;;5081301;28;20128;-59
2023/04/08 07:38:47;;;;;;;12.30;6.32;;;;;;;;;;5082946;28;20202;-60
2023/04/08 07:41:13;;;;;;;9.10;5.35;;;;;;;;;;5077346;28;20232;-60
2023/04/08 07:43:39;;;;;;;14.52;8.05;;;;;;;;;;5085430;28;20043;-59
2023/04/08 07:46:06;;;;;;;8.07;5.30;;;;;;;;;;5080717;28;20124;-59
2023/04/08 07:48:32;;;;;;;16.35;6.30;;;;;;;;;;5080917;28;20510;-59
2023/04/08 07:51:02;;;;;;;12.20;5.60;;;;;;;;;;5080361;28;20047;-60
2023/04/08 07:53:29;;;;;;;12.20;4.78;;;;;;;;;;5082607;28;20047;-60
2023/04/08 07:55:55;;;;;;;13.88;6.75;;;;;;;;;;5083943;28;20551;-60
2023/04/08 07:58:21;;;;;;;18.17;5.85;;;;;;;;;;5080248;28;20036;-60
2023/04/08 08:00:47;;;;;;;12.82;6.47;;;;;;;;;;5079935;28;20040;-60
2023/04/08 08:03:13;;;;;;;11.15;5.82;;;;;;;;;;5080411;28;20036;-59
2023/04/08 08:05:39;;;;;;;11.00;5.10;;;;;;;;;;5063719;28;20036;-60
2023/04/08 08:08:06;;;;;;;14.00;6.70;;;;;;;;;;5080234;28;20538;-60
2023/04/08 08:10:32;;;;;;;13.68;6.05;;;;;;;;;;5082730;27;20053;-60
2023/04/08 08:12:59;;;;;;;9.60;4.60;;;;;;;;;;5083518;28;20036;-60
2023/04/08 08:15:25;;;;;;;12.30;4.95;;;;;;;;;;5082630;28;20084;-60
2023/04/08 08:17:51;;;;;;;10.38;5.38;;;;;;;;;;5083637;28;20048;-60
2023/04/08 08:20:17;;;;;;;8.57;4.82;;;;;;;;;;5083840;28;20040;-59
2023/04/08 08:22:44;;;;;;;11.80;5.60;;;;;;;;;;5084201;28;20040;-59
2023/04/08 08:25:10;;;;;;;9.50;5.95;;;;;;;;;;5066795;28;20045;-59
2023/04/08 08:27:36;;;;;;;11.45;4.82;;;;;;;;;;5084306;28;20092;-59
2023/04/08 08:30:03;;;;;;;12.80;6.63;;;;;;;;;;5083487;28;20478;-60
2023/04/08 08:32:29;;;;;;;16.45;7.40;;;;;;;;;;5081812;28;20094;-60
2023/04/08 08:34:55;;;;;;;9.77;5.60;;;;;;;;;;5080538;28;20036;-59
2023/04/08 08:37:21;;;;;;;9.98;5.45;;;;;;;;;;5077370;28;20059;-60
2023/04/08 08:39:47;;;;;;;12.07;6.45;;;;;;;;;;5081456;28;20036;-60
2023/04/08 08:42:23;;;;;;;13.20;7.60;;;;;;;;;;5077891;27;20115;-60
2023/04/08 08:44:50;;;;;;;11.43;6.13;;;;;;;;;;5079592;28;20078;-59
2023/04/08 08:47:16;;;;;;;11.95;6.75;;;;;;;;;;5079213;28;20137;-60
2023/04/08 08:49:43;;;;;;;9.95;6.85;;;;;;;;;;5078732;28;20131;-60
2023/04/08 08:52:10;;;;;;;13.35;7.45;;;;;;;;;;5076763;28;20532;-60
2023/04/08 08:54:36;;;;;;;12.52;7.53;;;;;;;;;;5073767;28;20264;-60
2023/04/08 08:57:02;;;;;;;8.25;4.93;;;;;;;;;;5082730;27;20036;-59
2023/04/08 08:59:29;;;;;;;11.75;6.63;;;;;;;;;;5081559;28;20744;-60
2023/04/08 09:01:55;;;;;;;11.63;6.32;;;;;;;;;;5084478;28;20505;-60
2023/04/08 09:04:21;;;;;;;12.68;5.97;;;;;;;;;;5083501;28;20041;-59
2023/04/08 09:07:04;;;;;;;11.80;6.80;;;;;;;;;;5084669;28;20051;-59
2023/04/08 09:09:47;;;;;;;14.27;6.10;;;;;;;;;;5082438;27;20547;-60
2023/04/08 09:12:13;;;;;;;12.55;6.40;;;;;;;;;;5084162;28;20044;-60
2023/04/08 09:14:39;;;;;;;11.05;5.80;;;;;;;;;;5084743;28;20048;-60
2023/04/08 09:17:05;;;;;;;13.50;7.20;;;;;;;;;;5069764;28;20047;-60
2023/04/08 09:19:31;;;;;;;9.70;4.93;;;;;;;;;;5083792;28;20048;-60
2023/04/08 09:22:08;;;;;;;14.25;6.93;;;;;;;;;;5066740;28;20036;-60
2023/04/08 09:24:34;;;;;;;13.27;7.10;;;;;;;;;;5084243;28;20154;-60
2023/04/08 09:27:00;;;;;;;11.10;6.25;;;;;;;;;;5082404;28;20043;-60
2023/04/08 09:29:27;;;;;;;12.38;5.53;;;;;;;;;;5083640;28;20116;-61
2023/04/08 09:31:54;;;;;;;13.93;6.38;;;;;;;;;;5082885;28;20605;-61
2023/04/08 09:34:22;;;;;;;12.88;7.15;;;;;;;;;;5082820;28;20138;-60
2023/04/08 09:36:48;;;;;;;11.25;6.03;;;;;;;;;;5082079;28;20113;-60
2023/04/08 09:39:14;;;;;;;11.70;6.43;;;;;;;;;;5066400;28;20040;-60
2023/04/08 09:41:41;;;;;;;18.77;6.70;;;;;;;;;;5080838;28;20044;-60
2023/04/08 09:44:09;;;;;;;12.27;5.35;;;;;;;;;;5082832;28;20051;-60
2023/04/08 09:46:51;;;;;;;12.88;5.38;;;;;;;;;;5081918;28;20091;-60
2023/04/08 09:49:17;;;;;;;;;;;;;;;;;;5081894;28;20182;-60
2023/04/08 09:51:46;;;;;;;8.27;5.75;;;;;;;;;;5082413;28;20027;-60
2023/04/08 09:54:18;;;;;;;11.20;5.53;;;;;;;;;;5082888;28;20064;-60
2023/04/08 09:56:49;;;;;;;11.77;5.18;;;;;;;;;;5084031;28;20051;-60
2023/04/08 09:59:16;;;;;;;12.00;5.90;;;;;;;;;;5082811;28;20049;-60
2023/04/08 10:01:46;;;;;;;11.85;5.72;;;;;;;;;;5081409;28;20050;-60
2023/04/08 10:04:16;;;;;;;10.85;5.85;;;;;;;;;;5081179;28;20066;-59
2023/04/08 10:06:42;;;;;;;13.75;6.15;;;;;;;;;;5082256;27;20463;-59
2023/04/08 10:09:09;;;;;;;13.95;6.47;;;;;;;;;;5079734;28;20109;-60
2023/04/08 10:11:36;;;;;;;9.77;5.00;;;;;;;;;;5079250;28;20052;-60
2023/04/08 10:14:02;;;;;;;11.60;4.90;;;;;;;;;;5083404;28;20036;-60
2023/04/08 10:16:29;;;;;;;10.77;6.15;;;;;;;;;;5082861;28;20307;-60
2023/04/08 10:18:55;;;;;;;9.93;5.75;;;;;;;;;;5081747;28;20660;-60
2023/04/08 10:21:38;;;;;;;9.82;5.63;;;;;;;;;;5081013;28;20044;-59
2023/04/08 10:24:08;;;;;;;8.20;4.82;;;;;;;;;;5083472;28;20029;-60
2023/04/08 10:26:43;;;;;;;10.50;5.38;;;;;;;;;;5079388;28;20055;-59
2023/04/08 10:29:20;;;;;;;13.13;5.47;;;;;;;;;;5076974;28;20238;-59
2023/04/08 10:31:46;;;;;;;11.70;5.18;;;;;;;;;;5093633;27;22287;-60
2023/04/08 10:34:19;;;;;;;13.40;5.68;;;;;;;;;;5079247;28;20045;-60
2023/04/08 10:36:45;;;;;;;12.60;5.03;;;;;;;;;;5081042;27;20102;-60
2023/04/08 10:39:17;;;;;;;11.15;5.20;;;;;;;;;;5076221;28;20113;-59
2023/04/08 10:41:46;;;;;;;12.98;5.57;;;;;;;;;;5078540;28;20128;-59
2023/04/08 10:44:20;;;;;;;11.07;5.65;;;;;;;;;;5079830;28;20042;-59
2023/04/08 10:46:46;;;;;;;11.60;5.93;;;;;;;;;;5080494;28;20039;-59
2023/04/08 10:49:13;;;;;;;10.02;6.30;;;;;;;;;;5080802;28;20047;-59
2023/04/08 10:51:40;;;;;;;9.18;4.70;;;;;;;;;;5079531;28;20040;-58
2023/04/08 10:54:07;;;;;;;8.45;5.35;;;;;;;;;;5064149;28;20099;-60
2023/04/08 10:56:34;;;;;;;12.60;5.95;;;;;;;;;;5079274;28;20064;-60
2023/04/08 10:59:01;;;;;;;9.68;6.03;;;;;;;;;;5076466;28;20040;-60
2023/04/08 11:01:28;;;;;;;9.60;5.55;;;;;;;;;;5077159;28;20755;-60
2023/04/08 11:03:55;;;;;;;33.80;11.20;;;;;;;;;;5082548;28;20048;-60
2023/04/08 11:06:22;;;;;;;20.83;7.90;;;;;;;;;;5080742;28;20043;-60
2023/04/08 11:08:48;;;;;;;11.57;5.65;;;;;;;;;;5078633;28;20067;-61
2023/04/08 11:11:14;;;;;;;9.35;5.00;;;;;;;;;;5082511;28;21168;-60
2023/04/08 11:13:41;;;;;;;16.33;5.85;;;;;;;;;;5084292;28;20045;-60
2023/04/08 11:16:08;;;;;;;10.20;4.07;;;;;;;;;;5084637;28;20100;-60
2023/04/08 11:18:34;;;;;;;12.63;5.80;;;;;;;;;;5082397;28;22252;-60
2023/04/08 11:21:01;;;;;;;8.38;5.28;;;;;;;;;;5082714;28;20044;-60
2023/04/08 11:23:27;;;;;;;10.90;4.40;;;;;;;;;;5082205;28;20133;-60
2023/04/08 11:25:53;;;;;;;11.15;5.57;;;;;;;;;;5079054;28;21384;-60
2023/04/08 11:28:20;;;;;;;9.02;5.43;;;;;;;;;;5083119;28;20059;-60
2023/04/08 11:30:47;;;;;;;8.85;5.00;;;;;;;;;;5068548;28;20564;-60
2023/04/08 11:33:13;;;;;;;7.90;4.57;;;;;;;;;;5077472;28;20499;-60
2023/04/08 11:35:40;;;;;;;8.48;4.93;;;;;;;;;;5084432;28;20047;-60
2023/04/08 11:38:06;;;;;;;11.43;5.15;;;;;;;;;;5080148;28;20044;-61
2023/04/08 11:40:32;;;;;;;8.13;4.55;;;;;;;;;;5078852;28;20167;-60
2023/04/08 11:42:58;;;;;;;13.05;6.18;;;;;;;;;;5081223;28;20077;-60
2023/04/08 11:45:24;;;;;;;12.68;5.40;;;;;;;;;;5082806;28;20045;-60
2023/04/08 11:47:50;;;;;;;10.32;5.38;;;;;;;;;;5083479;28;20611;-60
2023/04/08 11:50:24;;;;;;;11.65;6.53;;;;;;;;;;5076993;28;20546;-60
2023/04/08 11:52:51;;;;;;;11.27;5.57;;;;;;;;;;5083988;28;20085;-60
2023/04/08 11:55:25;;;;;;;13.00;6.28;;;;;;;;;;5078118;28;20098;-60
2023/04/08 11:57:51;;;;;;;10.63;5.43;;;;;;;;;;5078871;28;20051;-60
2023/04/08 12:00:18;;;;;;;9.50;5.72;;;;;;;;;;5066565;28;20649;-61
2023/04/08 12:02:45;;;;;;;8.48;4.20;;;;;;;;;;5081498;27;20079;-61
2023/04/08 12:05:11;;;;;;;12.13;5.50;;;;;;;;;;5081948;28;20047;-60
2023/04/08 12:07:37;;;;;;;9.80;4.82;;;;;;;;;;5086630;28;20041;-61
2023/04/08 12:10:03;;;;;;;11.65;4.78;;;;;;;;;;5084612;28;20051;-61
2023/04/08 12:12:29;;;;;;;8.27;4.75;;;;;;;;;;5083313;27;20566;-61
2023/04/08 12:14:55;;;;;;;9.95;4.63;;;;;;;;;;5084199;28;20045;-61
2023/04/08 12:17:21;;;;;;;9.23;5.97;;;;;;;;;;5085029;28;20599;-60
2023/04/08 12:19:48;;;;;;;10.52;4.85;;;;;;;;;;5084586;28;20052;-61
2023/04/08 12:22:15;;;;;;;7.25;4.60;;;;;;;;;;5084443;28;20041;-59
2023/04/08 12:24:41;;;;;;;7.28;4.50;;;;;;;;;;5085898;28;20037;-59
2023/04/08 12:27:07;;;;;;;7.55;4.00;;;;;;;;;;5086639;28;20107;-59
2023/04/08 12:29:33;;;;;;;6.88;4.20;;;;;;;;;;5085308;28;20033;-59
2023/04/08 12:32:01;;;;;;;10.15;3.63;;;;;;;;;;5085294;28;20048;-59
2023/04/08 12:34:27;;;;;;;8.25;4.40;;;;;;;;;;5085226;28;20458;-59
2023/04/08 12:36:54;;;;;;;8.68;3.38;;;;;;;;;;5085484;28;20171;-59
2023/04/08 12:39:21;;;;;;;7.80;3.83;;;;;;;;;;5085013;28;20051;-59
2023/04/08 12:41:47;;;;;;;9.23;4.55;;;;;;;;;;5084970;28;20163;-59
2023/04/08 12:44:13;;;;;;;10.38;4.28;;;;;;;;;;5083977;28;20047;-59
2023/04/08 12:46:39;;;;;;;7.88;4.35;;;;;;;;;;5083526;28;20490;-59
2023/04/08 12:49:05;;;;;;;7.85;3.95;;;;;;;;;;5086053;28;20127;-59
2023/04/08 12:51:31;;;;;;;7.40;4.38;;;;;;;;;;5084662;28;20134;-60
2023/04/08 12:53:59;;;;;;;6.88;3.80;;;;;;;;;;5083898;28;20040;-59
2023/04/08 12:56:26;;;;;;;6.32;3.95;;;;;;;;;;5083635;28;20048;-60
2023/04/08 12:58:52;;;;;;;8.98;5.00;;;;;;;;;;5083191;28;20074;-60
2023/04/08 13:01:18;;;;;;;12.23;5.22;;;;;;;;;;5082297;28;20044;-60
2023/04/08 13:03:46;;;;;;;10.10;4.70;;;;;;;;;;5084565;28;20028;-59
2023/04/08 13:06:12;;;;;;;9.40;4.68;;;;;;;;;;5081992;28;20072;-60
2023/04/08 13:08:38;;;;;;;8.20;4.07;;;;;;;;;;5083217;28;20060;-59
2023/04/08 13:11:05;;;;;;;8.13;3.45;;;;;;;;;;5085674;28;20044;-60
2023/04/08 13:13:31;;;;;;;8.25;4.00;;;;;;;;;;5082312;28;20552;-59
2023/04/08 13:15:57;;;;;;;12.05;5.43;;;;;;;;;;5082937;28;20584;-60
2023/04/08 13:18:23;;;;;;;9.13;4.88;;;;;;;;;;5084912;28;20036;-60
2023/04/08 13:20:50;;;;;;;6.38;3.83;;;;;;;;;;5084341;28;20037;-60
2023/04/08 13:23:16;;;;;;;9.30;5.38;;;;;;;;;;5082853;28;20128;-60
2023/04/08 13:25:44;;;;;;;9.63;4.25;;;;;;;;;;5084051;28;20036;-60
2023/04/08 13:28:10;;;;;;;6.78;3.80;;;;;;;;;;5084307;28;20068;-60
2023/04/08 13:30:36;;;;;;;9.93;3.95;;;;;;;;;;5084219;28;20040;-60
2023/04/08 13:33:02;;;;;;;6.35;3.58;;;;;;;;;;5086311;28;20044;-60
2023/04/08 13:35:29;;;;;;;8.35;4.00;;;;;;;;;;5085337;28;20900;-60
2023/04/08 13:37:55;;;;;;;9.30;3.50;;;;;;;;;;5069588;28;20071;-60
2023/04/08 13:40:21;;;;;;;7.50;3.28;;;;;;;;;;5083571;28;20045;-60
2023/04/08 13:42:47;;;;;;;5.40;3.72;;;;;;;;;;5082959;28;20553;-59
2023/04/08 13:45:13;;;;;;;8.27;3.50;;;;;;;;;;5083020;28;20574;-59
2023/04/08 13:47:39;;;;;;;5.78;3.55;;;;;;;;;;5084455;28;20123;-60
2023/04/08 13:50:06;;;;;;;5.43;2.90;;;;;;;;;;5085132;28;20872;-60
2023/04/08 13:52:32;;;;;;;9.93;3.35;;;;;;;;;;5085328;28;20036;-60
2023/04/08 13:54:58;;;;;;;5.22;2.78;;;;;;;;;;5084017;28;20597;-60
2023/04/08 13:57:24;;;;;;;4.97;2.60;;;;;;;;;;5083742;28;20111;-60
2023/04/08 13:59:50;;;;;;;7.55;2.83;;;;;;;;;;5086434;28;20044;-60
2023/04/08 14:02:16;;;;;;;6.85;3.53;;;;;;;;;;5083474;28;20028;-60
2023/04/08 14:04:44;;;;;;;5.85;3.20;;;;;;;;;;5084923;28;20538;-59
2023/04/08 14:07:10;;;;;;;6.63;3.22;;;;;;;;;;5084884;28;20044;-59
2023/04/08 14:09:36;;;;;;;5.47;3.15;;;;;;;;;;5083141;28;20058;-60
2023/04/08 14:12:02;;;;;;;3.40;2.33;;;;;;;;;;5081661;28;20036;-60
2023/04/08 14:14:29;;;;;;;5.30;3.28;;;;;;;;;;5084330;28;20109;-60
2023/04/08 14:16:55;;;;;;;5.97;2.90;;;;;;;;;;5080768;28;20052;-60
2023/04/08 14:19:21;;;;;;;5.78;3.20;;;;;;;;;;5082422;28;20125;-59
2023/04/08 14:21:47;;;;;;;5.07;3.63;;;;;;;;;;5082760;28;20551;-60
2023/04/08 14:24:13;;;;;;;6.60;3.58;;;;;;;;;;5083572;28;20511;-60
2023/04/08 14:26:39;;;;;;;5.00;3.00;;;;;;;;;;5081673;28;20429;-60
2023/04/08 14:29:06;;;;;;;6.07;3.30;;;;;;;;;;5085136;28;20098;-60
2023/04/08 14:31:33;;;;;;;5.70;3.28;;;;;;;;;;5082205;28;20041;-60
2023/04/08 14:33:59;;;;;;;4.50;3.30;;;;;;;;;;5065840;28;20365;-60
2023/04/08 14:36:26;;;;;;;7.97;3.58;;;;;;;;;;5084229;28;20516;-60